sensor_id;sensor_type;location;lat;lon;timestamp;pressure;altitude;pressure_sealevel;temperature;humidity
70571;BME280;58135;50.948;-1.458;2022-09-09T00:02:15;99912.39;;;17.43;18.59
70571;BME280;58135;50.948;-1.458;2022-09-09T00:04:36;99913.76;;;20.12;18.50
70571;BME280;58135;50.948;-1.458;2022-09-09T00:07:04;99914.58;;;16.53;18.49
70571;BME280;58135;50.948;-1.458;2022-09-09T00:09:28;99913.31;;;17.39;18.45
70571;BME280;58135;50.948;-1.458;2022-09-09T00:11:52;99912.68;;;17.27;18.43
70571;BME280;58135;50.948;-1.458;2022-09-09T00:14:23;99913.01;;;18.87;18.49
70571;BME280;58135;50.948;-1.458;2022-09-09T00:16:47;99909.59;;;18.90;18.48
70571;BME280;58135;50.948;-1.458;2022-09-09T00:19:12;99909.61;;;17.13;18.53
70571;BME280;58135;50.948;-1.458;2022-09-09T00:21:36;99910.37;;;17.24;18.58
70571;BME280;58135;50.948;-1.458;2022-09-09T00:24:04;99909.45;;;18.16;18.47
70571;BME280;58135;50.948;-1.458;2022-09-09T00:26:31;99910.71;;;17.29;18.58
70571;BME280;58135;50.948;-1.458;2022-09-09T00:28:55;99912.48;;;19.04;18.46
70571;BME280;58135;50.948;-1.458;2022-09-09T00:31:20;99913.08;;;18.10;18.58
70571;BME280;58135;50.948;-1.458;2022-09-09T00:33:42;99909.17;;;18.06;18.48
70571;BME280;58135;50.948;-1.458;2022-09-09T00:36:12;99909.78;;;18.88;18.50
70571;BME280;58135;50.948;-1.458;2022-09-09T00:38:34;99911.84;;;18.02;18.54
70571;BME280;58135;50.948;-1.458;2022-09-09T00:41:03;99910.59;;;18.97;18.35
70571;BME280;58135;50.948;-1.458;2022-09-09T00:43:27;99904.15;;;18.16;18.42
70571;BME280;58135;50.948;-1.458;2022-09-09T00:46:02;99906.77;;;18.14;18.55
70571;BME280;58135;50.948;-1.458;2022-09-09T00:48:15;99908.75;;;19.04;18.38
70571;BME280;58135;50.948;-1.458;2022-09-09T00:50:46;99908.41;;;19.96;18.48
70571;BME280;58135;50.948;-1.458;2022-09-09T00:53:15;99912.13;;;16.54;18.50
70571;BME280;58135;50.948;-1.458;2022-09-09T00:55:37;99912.48;;;17.45;18.51
70571;BME280;58135;50.948;-1.458;2022-09-09T00:57:56;99916.30;;;18.31;18.37
70571;BME280;58135;50.948;-1.458;2022-09-09T01:00:24;99918.26;;;16.60;18.34
70571;BME280;58135;50.948;-1.458;2022-09-09T01:02:53;99918.14;;;17.54;18.45
70571;BME280;58135;50.948;-1.458;2022-09-09T01:05:18;99920.24;;;16.62;18.50
70571;BME280;58135;50.948;-1.458;2022-09-09T01:07:40;99924.63;;;17.54;18.48
70571;BME280;58135;50.948;-1.458;2022-09-09T01:10:08;99923.94;;;19.30;18.42
70571;BME280;58135;50.948;-1.458;2022-09-09T01:12:35;99925.86;;;18.44;18.46
70571;BME280;58135;50.948;-1.458;2022-09-09T01:15:03;99925.01;;;19.30;18.53
70571;BME280;58135;50.948;-1.458;2022-09-09T01:17:22;99923.10;;;16.68;18.53
70571;BME280;58135;50.948;-1.458;2022-09-09T01:19:55;99924.98;;;18.54;18.47
70571;BME280;58135;50.948;-1.458;2022-09-09T01:22:18;99925.89;;;16.01;18.52
70571;BME280;58135;50.948;-1.458;2022-09-09T01:24:42;99930.53;;;18.74;18.32
70571;BME280;58135;50.948;-1.458;2022-09-09T01:27:05;99934.97;;;18.82;18.45
70571;BME280;58135;50.948;-1.458;2022-09-09T01:29:28;99939.35;;;17.08;18.34
70571;BME280;58135;50.948;-1.458;2022-09-09T01:31:55;99940.59;;;17.89;18.32
70571;BME280;58135;50.948;-1.458;2022-09-09T01:34:20;99942.92;;;17.69;18.38
70571;BME280;58135;50.948;-1.458;2022-09-09T01:36:48;99943.89;;;18.57;18.52
70571;BME280;58135;50.948;-1.458;2022-09-09T01:39:10;99945.49;;;19.43;18.55
70571;BME280;58135;50.948;-1.458;2022-09-09T01:41:35;99945.68;;;16.77;18.53
70571;BME280;58135;50.948;-1.458;2022-09-09T01:44:02;99945.31;;;17.77;18.50
70571;BME280;58135;50.948;-1.458;2022-09-09T01:46:28;99943.83;;;17.82;18.52
70571;BME280;58135;50.948;-1.458;2022-09-09T01:48:53;99947.88;;;17.98;18.50
70571;BME280;58135;50.948;-1.458;2022-09-09T01:51:18;99952.63;;;18.10;18.48
70571;BME280;58135;50.948;-1.458;2022-09-09T01:53:44;99956.54;;;18.16;18.41
70571;BME280;58135;50.948;-1.458;2022-09-09T01:56:18;99958.34;;;19.11;18.39
70571;BME280;58135;50.948;-1.458;2022-09-09T01:58:43;99955.41;;;16.47;18.35
70571;BME280;58135;50.948;-1.458;2022-09-09T02:01:06;99957.74;;;18.97;18.41
70571;BME280;58135;50.948;-1.458;2022-09-09T02:03:27;99956.35;;;16.98;18.26
70571;BME280;58135;50.948;-1.458;2022-09-09T02:05:58;99963.03;;;17.61;18.21
70571;BME280;58135;50.948;-1.458;2022-09-09T02:08:20;99968.87;;;17.34;18.69
70571;BME280;58135;50.948;-1.458;2022-09-09T02:10:46;99968.44;;;17.48;18.63
70571;BME280;58135;50.948;-1.458;2022-09-09T02:13:11;99972.12;;;18.32;18.73
70571;BME280;58135;50.948;-1.458;2022-09-09T02:15:38;99974.78;;;17.48;18.59
70571;BME280;58135;50.948;-1.458;2022-09-09T02:17:59;99973.28;;;17.44;18.31
70571;BME280;58135;50.948;-1.458;2022-09-09T02:20:25;99976.99;;;17.22;18.71
70571;BME280;58135;50.948;-1.458;2022-09-09T02:22:50;99977.20;;;18.82;18.59
70571;BME280;58135;50.948;-1.458;2022-09-09T02:25:17;99981.86;;;17.19;18.81
70571;BME280;58135;50.948;-1.458;2022-09-09T02:27:41;99986.31;;;19.12;18.77
70571;BME280;58135;50.948;-1.458;2022-09-09T02:30:07;99988.78;;;17.42;18.75
70571;BME280;58135;50.948;-1.458;2022-09-09T02:32:32;99992.29;;;18.25;18.67
70571;BME280;58135;50.948;-1.458;2022-09-09T02:35:01;99994.50;;;18.10;18.61
70571;BME280;58135;50.948;-1.458;2022-09-09T02:37:24;99992.96;;;17.19;18.31
70571;BME280;58135;50.948;-1.458;2022-09-09T02:39:48;99998.23;;;18.86;18.78
70571;BME280;58135;50.948;-1.458;2022-09-09T02:42:13;99999.49;;;17.28;18.74
70571;BME280;58135;50.948;-1.458;2022-09-09T02:44:38;100001.63;;;17.40;18.73
70571;BME280;58135;50.948;-1.458;2022-09-09T02:47:14;100001.08;;;17.43;18.76
70571;BME280;58135;50.948;-1.458;2022-09-09T02:49:37;100002.55;;;18.36;18.71
70571;BME280;58135;50.948;-1.458;2022-09-09T02:52:01;100004.91;;;16.56;18.65
70571;BME280;58135;50.948;-1.458;2022-09-09T02:54:24;100007.36;;;19.38;18.64
70571;BME280;58135;50.948;-1.458;2022-09-09T02:56:51;100008.60;;;19.52;18.59
70571;BME280;58135;50.948;-1.458;2022-09-09T02:59:12;100009.87;;;18.79;18.56
70571;BME280;58135;50.948;-1.458;2022-09-09T03:01:37;100013.14;;;16.22;18.57
70571;BME280;58135;50.948;-1.458;2022-09-09T03:04:03;100015.21;;;18.13;18.53
70571;BME280;58135;50.948;-1.458;2022-09-09T03:06:29;100015.16;;;18.17;18.52
70571;BME280;58135;50.948;-1.458;2022-09-09T03:08:54;100016.13;;;19.11;18.50
70571;BME280;58135;50.948;-1.458;2022-09-09T03:11:19;100014.61;;;19.15;18.48
70571;BME280;58135;50.948;-1.458;2022-09-09T03:13:45;100017.12;;;18.39;18.49
70571;BME280;58135;50.948;-1.458;2022-09-09T03:16:10;100019.36;;;17.59;18.44
70571;BME280;58135;50.948;-1.458;2022-09-09T03:18:36;100019.72;;;19.42;18.42
70571;BME280;58135;50.948;-1.458;2022-09-09T03:21:02;100021.74;;;17.73;18.37
70571;BME280;58135;50.948;-1.458;2022-09-09T03:23:27;100019.88;;;18.66;18.21
70571;BME280;58135;50.948;-1.458;2022-09-09T03:25:53;100018.97;;;17.73;18.04
70571;BME280;58135;50.948;-1.458;2022-09-09T03:28:18;100018.51;;;18.49;18.22
70571;BME280;58135;50.948;-1.458;2022-09-09T03:30:43;100022.58;;;19.26;18.32
70571;BME280;58135;50.948;-1.458;2022-09-09T03:33:09;100023.66;;;18.46;18.35
70571;BME280;58135;50.948;-1.458;2022-09-09T03:35:35;100021.12;;;16.73;18.32
70571;BME280;58135;50.948;-1.458;2022-09-09T03:38:00;100026.61;;;17.53;18.33
70571;BME280;58135;50.948;-1.458;2022-09-09T03:40:25;100022.51;;;17.50;18.33
70571;BME280;58135;50.948;-1.458;2022-09-09T03:42:50;100023.86;;;19.23;18.29
70571;BME280;58135;50.948;-1.458;2022-09-09T03:45:17;100024.73;;;19.97;18.31
70571;BME280;58135;50.948;-1.458;2022-09-09T03:47:42;100026.72;;;16.34;18.35
70571;BME280;58135;50.948;-1.458;2022-09-09T03:50:08;100036.52;;;18.03;18.39
70571;BME280;58135;50.948;-1.458;2022-09-09T03:52:34;100043.33;;;18.07;18.35
70571;BME280;58135;50.948;-1.458;2022-09-09T03:54:58;100042.45;;;19.02;18.32
70571;BME280;58135;50.948;-1.458;2022-09-09T03:57:23;100044.51;;;17.27;18.32
70571;BME280;58135;50.948;-1.458;2022-09-09T03:59:49;100044.25;;;19.03;18.12
70571;BME280;58135;50.948;-1.458;2022-09-09T04:02:15;100042.91;;;18.21;18.25
70571;BME280;58135;50.948;-1.458;2022-09-09T04:04:40;100042.90;;;17.28;18.27
70571;BME280;58135;50.948;-1.458;2022-09-09T04:07:05;100043.74;;;18.20;18.27
70571;BME280;58135;50.948;-1.458;2022-09-09T04:09:31;100043.82;;;18.21;18.29
70571;BME280;58135;50.948;-1.458;2022-09-09T04:11:56;100045.39;;;19.95;18.28
70571;BME280;58135;50.948;-1.458;2022-09-09T04:14:21;100048.96;;;18.13;18.33
70571;BME280;58135;50.948;-1.458;2022-09-09T04:16:48;100047.38;;;18.12;18.32
70571;BME280;58135;50.948;-1.458;2022-09-09T04:19:13;100049.73;;;18.15;18.34
70571;BME280;58135;50.948;-1.458;2022-09-09T04:21:38;100053.44;;;19.08;18.34
70571;BME280;58135;50.948;-1.458;2022-09-09T04:24:05;100056.24;;;18.21;18.30
70571;BME280;58135;50.948;-1.458;2022-09-09T04:26:30;100056.16;;;17.26;18.29
70571;BME280;58135;50.948;-1.458;2022-09-09T04:28:55;100060.47;;;17.22;18.30
70571;BME280;58135;50.948;-1.458;2022-09-09T04:31:22;100063.41;;;19.85;18.27
70571;BME280;58135;50.948;-1.458;2022-09-09T04:33:46;100063.47;;;17.16;18.27
70571;BME280;58135;50.948;-1.458;2022-09-09T04:36:11;100064.48;;;18.05;18.31
70571;BME280;58135;50.948;-1.458;2022-09-09T04:38:37;100065.91;;;18.96;18.27
70571;BME280;58135;50.948;-1.458;2022-09-09T04:41:03;100071.91;;;19.00;18.24
70571;BME280;58135;50.948;-1.458;2022-09-09T04:43:28;100071.86;;;18.04;18.22
70571;BME280;58135;50.948;-1.458;2022-09-09T04:45:53;100069.34;;;19.81;18.26
70571;BME280;58135;50.948;-1.458;2022-09-09T04:48:20;100075.65;;;17.17;18.25
70571;BME280;58135;50.948;-1.458;2022-09-09T04:50:44;100079.40;;;17.99;18.25
70571;BME280;58135;50.948;-1.458;2022-09-09T04:53:09;100079.12;;;17.03;18.27
70571;BME280;58135;50.948;-1.458;2022-09-09T04:55:35;100085.99;;;17.05;18.25
70571;BME280;58135;50.948;-1.458;2022-09-09T04:58:03;100087.66;;;17.72;18.26
70571;BME280;58135;50.948;-1.458;2022-09-09T05:00:25;100089.26;;;17.80;18.31
70571;BME280;58135;50.948;-1.458;2022-09-09T05:02:51;100092.63;;;17.04;18.29
70571;BME280;58135;50.948;-1.458;2022-09-09T05:05:17;100100.04;;;17.98;18.26
70571;BME280;58135;50.948;-1.458;2022-09-09T05:07:42;100098.16;;;17.97;18.31
70571;BME280;58135;50.948;-1.458;2022-09-09T05:10:08;100098.21;;;18.86;18.26
70571;BME280;58135;50.948;-1.458;2022-09-09T05:12:33;100100.47;;;17.87;18.24
70571;BME280;58135;50.948;-1.458;2022-09-09T05:14:59;100105.27;;;17.78;18.31
70571;BME280;58135;50.948;-1.458;2022-09-09T05:17:24;100106.28;;;18.63;18.21
70571;BME280;58135;50.948;-1.458;2022-09-09T05:19:49;100110.79;;;18.51;18.28
70571;BME280;58135;50.948;-1.458;2022-09-09T05:22:18;100114.12;;;18.42;18.36
70571;BME280;58135;50.948;-1.458;2022-09-09T05:24:40;100119.57;;;17.56;18.39
70571;BME280;58135;50.948;-1.458;2022-09-09T05:27:06;100123.72;;;19.38;18.37
70571;BME280;58135;50.948;-1.458;2022-09-09T05:29:32;100125.21;;;18.60;18.37
70571;BME280;58135;50.948;-1.458;2022-09-09T05:31:57;100124.29;;;16.96;18.32
70571;BME280;58135;50.948;-1.458;2022-09-09T05:34:22;100123.16;;;17.94;18.32
70571;BME280;58135;50.948;-1.458;2022-09-09T05:36:48;100124.91;;;18.56;18.33
70571;BME280;58135;50.948;-1.458;2022-09-09T05:39:14;100126.32;;;19.48;18.36
70571;BME280;58135;50.948;-1.458;2022-09-09T05:41:40;100126.39;;;17.76;18.21
70571;BME280;58135;50.948;-1.458;2022-09-09T05:44:05;100129.29;;;17.77;18.30
70571;BME280;58135;50.948;-1.458;2022-09-09T05:46:31;100127.34;;;16.95;18.35
70571;BME280;58135;50.948;-1.458;2022-09-09T05:48:55;100130.73;;;17.88;18.35
70571;BME280;58135;50.948;-1.458;2022-09-09T05:51:23;100131.98;;;17.93;18.34
70571;BME280;58135;50.948;-1.458;2022-09-09T05:53:46;100134.89;;;18.89;18.31
70571;BME280;58135;50.948;-1.458;2022-09-09T05:56:14;100138.00;;;17.07;18.29
70571;BME280;58135;50.948;-1.458;2022-09-09T05:58:38;100138.30;;;17.93;18.34
70571;BME280;58135;50.948;-1.458;2022-09-09T06:01:05;100134.64;;;17.94;18.37
70571;BME280;58135;50.948;-1.458;2022-09-09T06:03:29;100133.54;;;17.90;18.33
70571;BME280;58135;50.948;-1.458;2022-09-09T06:05:57;100137.74;;;19.65;18.33
70571;BME280;58135;50.948;-1.458;2022-09-09T06:08:19;100139.25;;;18.70;18.35
70571;BME280;58135;50.948;-1.458;2022-09-09T06:10:45;100139.50;;;16.90;18.37
70571;BME280;58135;50.948;-1.458;2022-09-09T06:13:10;100137.09;;;16.88;18.35
70571;BME280;58135;50.948;-1.458;2022-09-09T06:15:36;100138.83;;;18.62;18.33
70571;BME280;58135;50.948;-1.458;2022-09-09T06:18:02;100144.15;;;18.58;18.32
70571;BME280;58135;50.948;-1.458;2022-09-09T06:20:27;100149.30;;;16.79;18.22
70571;BME280;58135;50.948;-1.458;2022-09-09T06:22:53;100150.70;;;19.09;18.03
70571;BME280;58135;50.948;-1.458;2022-09-09T06:25:19;100152.46;;;17.16;18.28
70571;BME280;58135;50.948;-1.458;2022-09-09T06:27:48;100159.63;;;17.24;18.36
70571;BME280;58135;50.948;-1.458;2022-09-09T06:30:10;100162.05;;;18.17;18.35
70571;BME280;58135;50.948;-1.458;2022-09-09T06:32:34;100160.85;;;18.07;18.32
70571;BME280;58135;50.948;-1.458;2022-09-09T06:35:00;100166.99;;;18.04;18.35
70571;BME280;58135;50.948;-1.458;2022-09-09T06:37:26;100170.11;;;17.21;18.37
70571;BME280;58135;50.948;-1.458;2022-09-09T06:39:51;100178.21;;;16.40;18.27
70571;BME280;58135;50.948;-1.458;2022-09-09T06:42:16;100181.18;;;17.23;18.08
70571;BME280;58135;50.948;-1.458;2022-09-09T06:44:42;100186.18;;;16.89;18.16
70571;BME280;58135;50.948;-1.458;2022-09-09T06:47:12;100192.45;;;16.84;18.29
70571;BME280;58135;50.948;-1.458;2022-09-09T06:49:33;100196.19;;;16.81;18.04
70571;BME280;58135;50.948;-1.458;2022-09-09T06:52:00;100199.69;;;15.84;18.42
70571;BME280;58135;50.948;-1.458;2022-09-09T06:54:24;100200.51;;;18.46;18.33
70571;BME280;58135;50.948;-1.458;2022-09-09T06:56:50;100204.65;;;16.74;18.33
70571;BME280;58135;50.948;-1.458;2022-09-09T06:59:17;100204.86;;;17.75;18.53
70571;BME280;58135;50.948;-1.458;2022-09-09T07:01:42;100206.28;;;18.49;18.39
70571;BME280;58135;50.948;-1.458;2022-09-09T07:04:07;100212.02;;;16.71;18.35
70571;BME280;58135;50.948;-1.458;2022-09-09T07:06:34;100214.82;;;17.64;18.37
70571;BME280;58135;50.948;-1.458;2022-09-09T07:08:59;100218.65;;;19.38;18.55
70571;BME280;58135;50.948;-1.458;2022-09-09T07:11:25;100217.59;;;17.63;18.55
70571;BME280;58135;50.948;-1.458;2022-09-09T07:13:48;100219.35;;;18.65;18.66
70571;BME280;58135;50.948;-1.458;2022-09-09T07:16:17;100218.64;;;17.92;18.29
70571;BME280;58135;50.948;-1.458;2022-09-09T07:18:40;100221.61;;;16.93;18.48
70571;BME280;58135;50.948;-1.458;2022-09-09T07:21:05;100226.56;;;17.85;18.54
70571;BME280;58135;50.948;-1.458;2022-09-09T07:23:31;100230.06;;;17.85;18.36
70571;BME280;58135;50.948;-1.458;2022-09-09T07:25:57;100230.25;;;16.98;17.88
70571;BME280;58135;50.948;-1.458;2022-09-09T07:28:22;100231.97;;;17.61;18.51
70571;BME280;58135;50.948;-1.458;2022-09-09T07:30:53;100235.45;;;17.90;18.52
70571;BME280;58135;50.948;-1.458;2022-09-09T07:33:12;100239.47;;;16.42;18.71
70571;BME280;58135;50.948;-1.458;2022-09-09T07:35:38;100243.18;;;19.13;18.59
70571;BME280;58135;50.948;-1.458;2022-09-09T07:38:03;100249.64;;;17.39;18.52
70571;BME280;58135;50.948;-1.458;2022-09-09T07:40:30;100254.42;;;17.66;18.64
70571;BME280;58135;50.948;-1.458;2022-09-09T07:42:55;100259.72;;;16.86;18.52
70571;BME280;58135;50.948;-1.458;2022-09-09T07:45:20;100261.43;;;17.86;18.69
70571;BME280;58135;50.948;-1.458;2022-09-09T07:47:46;100265.22;;;17.01;18.31
70571;BME280;58135;50.948;-1.458;2022-09-09T07:50:11;100267.70;;;17.15;18.34
70571;BME280;58135;50.948;-1.458;2022-09-09T07:52:37;100266.82;;;16.47;18.48
70571;BME280;58135;50.948;-1.458;2022-09-09T07:55:03;100268.29;;;17.41;18.25
70571;BME280;58135;50.948;-1.458;2022-09-09T07:57:28;100268.77;;;18.18;18.31
70571;BME280;58135;50.948;-1.458;2022-09-09T07:59:53;100268.86;;;17.33;18.16
70571;BME280;58135;50.948;-1.458;2022-09-09T08:02:19;100271.01;;;17.29;18.39
70571;BME280;58135;50.948;-1.458;2022-09-09T08:04:44;100269.60;;;17.02;18.58
70571;BME280;58135;50.948;-1.458;2022-09-09T08:07:10;100272.58;;;17.64;18.52
70571;BME280;58135;50.948;-1.458;2022-09-09T08:09:36;100270.59;;;18.53;18.66
70571;BME280;58135;50.948;-1.458;2022-09-09T08:12:01;100274.94;;;18.59;18.61
70571;BME280;58135;50.948;-1.458;2022-09-09T08:14:26;100273.78;;;18.89;18.94
70571;BME280;58135;50.948;-1.458;2022-09-09T08:16:51;100278.51;;;16.58;18.54
70571;BME280;58135;50.948;-1.458;2022-09-09T08:19:17;100273.61;;;17.53;18.41
70571;BME280;58135;50.948;-1.458;2022-09-09T08:21:44;100279.12;;;18.25;18.37
70571;BME280;58135;50.948;-1.458;2022-09-09T08:24:10;100280.52;;;18.23;18.14
70571;BME280;58135;50.948;-1.458;2022-09-09T08:26:36;100279.05;;;17.54;18.69
70571;BME280;58135;50.948;-1.458;2022-09-09T08:29:00;100282.84;;;17.56;17.83
70571;BME280;58135;50.948;-1.458;2022-09-09T08:31:27;100284.60;;;16.44;18.23
70571;BME280;58135;50.948;-1.458;2022-09-09T08:33:49;100282.81;;;18.32;18.04
70571;BME280;58135;50.948;-1.458;2022-09-09T08:36:16;100284.15;;;18.18;18.22
70571;BME280;58135;50.948;-1.458;2022-09-09T08:38:41;100284.38;;;18.67;18.20
70571;BME280;58135;50.948;-1.458;2022-09-09T08:41:19;100284.04;;;16.93;18.47
70571;BME280;58135;50.948;-1.458;2022-09-09T08:43:32;100290.59;;;16.88;17.97
70571;BME280;58135;50.948;-1.458;2022-09-09T08:46:00;100290.76;;;18.14;17.83
70571;BME280;58135;50.948;-1.458;2022-09-09T08:48:36;100295.84;;;17.65;17.55
70571;BME280;58135;50.948;-1.458;2022-09-09T08:50:49;100300.23;;;18.61;18.04
70571;BME280;58135;50.948;-1.458;2022-09-09T08:53:17;100302.29;;;17.39;17.65
70571;BME280;58135;50.948;-1.458;2022-09-09T08:55:43;100304.40;;;19.14;17.48
70571;BME280;58135;50.948;-1.458;2022-09-09T08:58:09;100305.16;;;18.48;17.89
70571;BME280;58135;50.948;-1.458;2022-09-09T09:00:36;100308.10;;;18.55;17.59
70571;BME280;58135;50.948;-1.458;2022-09-09T09:03:02;100308.57;;;18.52;17.62
70571;BME280;58135;50.948;-1.458;2022-09-09T09:05:27;100315.34;;;18.49;17.97
70571;BME280;58135;50.948;-1.458;2022-09-09T09:07:55;100315.01;;;18.64;18.10
70571;BME280;58135;50.948;-1.458;2022-09-09T09:10:18;100318.08;;;17.24;18.05
70571;BME280;58135;50.948;-1.458;2022-09-09T09:12:41;100315.26;;;18.74;17.71
70571;BME280;58135;50.948;-1.458;2022-09-09T09:15:11;100316.45;;;17.85;17.66
70571;BME280;58135;50.948;-1.458;2022-09-09T09:17:29;100325.48;;;18.46;17.48
70571;BME280;58135;50.948;-1.458;2022-09-09T09:19:53;100327.74;;;19.65;17.01
70571;BME280;58135;50.948;-1.458;2022-09-09T09:22:21;100332.93;;;18.77;17.37
70571;BME280;58135;50.948;-1.458;2022-09-09T09:24:50;100338.74;;;19.01;17.76
70571;BME280;58135;50.948;-1.458;2022-09-09T09:27:13;100345.95;;;19.23;17.49
70571;BME280;58135;50.948;-1.458;2022-09-09T09:29:35;100346.44;;;17.00;17.80
70571;BME280;58135;50.948;-1.458;2022-09-09T09:32:02;100350.72;;;20.97;17.59
70571;BME280;58135;50.948;-1.458;2022-09-09T09:34:26;100356.21;;;19.68;17.59
70571;BME280;58135;50.948;-1.458;2022-09-09T09:36:54;100357.24;;;19.99;17.37
70571;BME280;58135;50.948;-1.458;2022-09-09T09:39:24;100363.20;;;18.63;17.28
70571;BME280;58135;50.948;-1.458;2022-09-09T09:41:43;100366.56;;;19.62;17.35
70571;BME280;58135;50.948;-1.458;2022-09-09T09:44:22;100368.03;;;19.06;17.21
70571;BME280;58135;50.948;-1.458;2022-09-09T09:46:34;100377.03;;;21.66;17.29
70571;BME280;58135;50.948;-1.458;2022-09-09T09:49:01;100381.70;;;19.72;16.64
70571;BME280;58135;50.948;-1.458;2022-09-09T09:51:26;100381.40;;;19.81;17.18
70571;BME280;58135;50.948;-1.458;2022-09-09T09:53:50;100383.03;;;19.59;16.96
70571;BME280;58135;50.948;-1.458;2022-09-09T09:56:15;100383.45;;;20.36;17.10
70571;BME280;58135;50.948;-1.458;2022-09-09T09:58:49;100387.41;;;19.68;17.16
70571;BME280;58135;50.948;-1.458;2022-09-09T10:03:33;100391.70;;;19.96;17.03
70571;BME280;58135;50.948;-1.458;2022-09-09T10:05:58;100393.00;;;18.24;16.99
70571;BME280;58135;50.948;-1.458;2022-09-09T10:08:23;100393.81;;;18.30;16.71
70571;BME280;58135;50.948;-1.458;2022-09-09T10:10:59;100394.05;;;19.22;16.24
70571;BME280;58135;50.948;-1.458;2022-09-09T10:13:19;100393.93;;;17.24;16.85
70571;BME280;58135;50.948;-1.458;2022-09-09T10:15:45;100394.94;;;18.92;16.09
70571;BME280;58135;50.948;-1.458;2022-09-09T10:18:18;100393.02;;;19.02;16.63
70571;BME280;58135;50.948;-1.458;2022-09-09T10:20:37;100394.48;;;20.13;16.40
70571;BME280;58135;50.948;-1.458;2022-09-09T10:23:04;100395.92;;;19.48;16.95
70571;BME280;58135;50.948;-1.458;2022-09-09T10:25:31;100401.19;;;19.75;16.79
70571;BME280;58135;50.948;-1.458;2022-09-09T10:27:57;100400.48;;;20.00;16.79
70571;BME280;58135;50.948;-1.458;2022-09-09T10:30:17;100404.15;;;20.96;16.77
70571;BME280;58135;50.948;-1.458;2022-09-09T10:32:41;100405.97;;;19.96;16.57
70571;BME280;58135;50.948;-1.458;2022-09-09T10:35:09;100407.41;;;19.43;16.74
70571;BME280;58135;50.948;-1.458;2022-09-09T10:37:41;100409.57;;;19.18;16.99
70571;BME280;58135;50.948;-1.458;2022-09-09T10:40:01;100414.70;;;18.73;16.82
70571;BME280;58135;50.948;-1.458;2022-09-09T10:42:21;100420.19;;;17.00;16.26
70571;BME280;58135;50.948;-1.458;2022-09-09T10:44:56;100419.21;;;18.59;16.77
70571;BME280;58135;50.948;-1.458;2022-09-09T10:47:26;100417.51;;;21.47;17.09
70571;BME280;58135;50.948;-1.458;2022-09-09T10:49:48;100421.51;;;19.85;16.80
70571;BME280;58135;50.948;-1.458;2022-09-09T10:52:07;100426.88;;;20.14;17.03
70571;BME280;58135;50.948;-1.458;2022-09-09T10:54:35;100427.24;;;18.02;17.25
70571;BME280;58135;50.948;-1.458;2022-09-09T10:56:58;100425.68;;;20.05;17.24
70571;BME280;58135;50.948;-1.458;2022-09-09T10:59:21;100429.32;;;19.75;17.03
70571;BME280;58135;50.948;-1.458;2022-09-09T11:01:47;100429.60;;;20.63;17.18
70571;BME280;58135;50.948;-1.458;2022-09-09T11:04:15;100430.07;;;18.94;17.11
70571;BME280;58135;50.948;-1.458;2022-09-09T11:06:39;100432.51;;;20.62;17.00
70571;BME280;58135;50.948;-1.458;2022-09-09T11:09:01;100433.37;;;20.28;17.02
70571;BME280;58135;50.948;-1.458;2022-09-09T11:11:29;100436.25;;;19.39;16.99
70571;BME280;58135;50.948;-1.458;2022-09-09T11:13:55;100436.02;;;20.19;16.90
70571;BME280;58135;50.948;-1.458;2022-09-09T11:16:24;100436.30;;;19.47;17.11
70571;BME280;58135;50.948;-1.458;2022-09-09T11:18:42;100438.07;;;20.04;17.35
70571;BME280;58135;50.948;-1.458;2022-09-09T11:21:13;100433.59;;;21.68;17.07
70571;BME280;58135;50.948;-1.458;2022-09-09T11:23:38;100437.89;;;21.08;16.50
70571;BME280;58135;50.948;-1.458;2022-09-09T11:26:00;100437.85;;;22.06;16.75
70571;BME280;58135;50.948;-1.458;2022-09-09T11:28:32;100438.23;;;20.40;16.44
70571;BME280;58135;50.948;-1.458;2022-09-09T11:30:59;100440.21;;;20.13;16.36
70571;BME280;58135;50.948;-1.458;2022-09-09T11:35:47;100444.08;;;20.77;16.40
70571;BME280;58135;50.948;-1.458;2022-09-09T11:38:16;100447.14;;;21.73;15.90
70571;BME280;58135;50.948;-1.458;2022-09-09T11:40:32;100449.54;;;18.08;16.58
70571;BME280;58135;50.948;-1.458;2022-09-09T11:43:03;100446.17;;;19.81;16.19
70571;BME280;58135;50.948;-1.458;2022-09-09T11:45:24;100446.66;;;20.56;15.76
70571;BME280;58135;50.948;-1.458;2022-09-09T11:47:53;100452.05;;;19.21;16.44
70571;BME280;58135;50.948;-1.458;2022-09-09T11:52:40;100452.06;;;19.82;16.44
70571;BME280;58135;50.948;-1.458;2022-09-09T11:55:09;100450.98;;;20.72;16.43
70571;BME280;58135;50.948;-1.458;2022-09-09T11:57:32;100453.21;;;19.79;16.74
70571;BME280;58135;50.948;-1.458;2022-09-09T11:59:55;100446.82;;;19.09;15.83
70571;BME280;58135;50.948;-1.458;2022-09-09T12:02:24;100443.69;;;19.70;16.68
70571;BME280;58135;50.948;-1.458;2022-09-09T12:04:48;100444.50;;;20.25;15.74
70571;BME280;58135;50.948;-1.458;2022-09-09T12:07:23;100443.68;;;22.20;16.15
70571;BME280;58135;50.948;-1.458;2022-09-09T12:09:45;100448.66;;;20.52;15.58
70571;BME280;58135;50.948;-1.458;2022-09-09T12:12:06;100449.11;;;20.70;16.32
70571;BME280;58135;50.948;-1.458;2022-09-09T12:14:35;100450.27;;;21.96;15.96
70571;BME280;58135;50.948;-1.458;2022-09-09T12:16:53;100451.04;;;20.49;15.96
70571;BME280;58135;50.948;-1.458;2022-09-09T12:19:20;100459.19;;;21.56;15.84
70571;BME280;58135;50.948;-1.458;2022-09-09T12:21:50;100458.56;;;22.28;15.85
70571;BME280;58135;50.948;-1.458;2022-09-09T12:24:10;100455.43;;;19.35;15.69
70571;BME280;58135;50.948;-1.458;2022-09-09T12:26:38;100457.64;;;21.66;15.74
70571;BME280;58135;50.948;-1.458;2022-09-09T12:29:10;100471.89;;;20.12;15.65
70571;BME280;58135;50.948;-1.458;2022-09-09T12:31:28;100480.48;;;19.51;16.27
70571;BME280;58135;50.948;-1.458;2022-09-09T12:33:51;100484.91;;;18.28;16.95
70571;BME280;58135;50.948;-1.458;2022-09-09T12:36:19;100478.04;;;17.81;17.60
70571;BME280;58135;50.948;-1.458;2022-09-09T12:38:43;100481.45;;;17.16;17.69
70571;BME280;58135;50.948;-1.458;2022-09-09T12:41:19;100484.20;;;17.99;18.13